Time;durP1;ratioP1;P1;durP2;ratioP2;P2;SDS_P1;SDS_P2;PMS_P1;PMS_P2;Temp;Humidity;BMP_temperature;BMP_pressure;BME280_temperature;BME280_humidity;BME280_pressure;Samples;Min_cycle;Max_cycle;Signal;HPM_P1;HPM_P2
2023/08/18 00:01:16;;;;;;;16.20;13.13;;;;;;;;;;5072946;28;20764;-66
2023/08/18 00:03:44;;;;;;;16.03;14.30;;;;;;;;;;5073026;28;20552;-66
2023/08/18 00:06:11;;;;;;;18.30;14.10;;;;;;;;;;5072614;28;21062;-66
2023/08/18 00:08:39;;;;;;;14.90;13.40;;;;;;;;;;5072707;28;20441;-66
2023/08/18 00:11:08;;;;;;;14.50;12.43;;;;;;;;;;5072859;28;20489;-66
2023/08/18 00:13:35;;;;;;;15.13;12.83;;;;;;;;;;5072503;28;20885;-66
2023/08/18 00:16:02;;;;;;;19.10;15.07;;;;;;;;;;5072535;28;20446;-66
2023/08/18 00:18:30;;;;;;;16.87;15.00;;;;;;;;;;5072642;28;20443;-66
2023/08/18 00:20:58;;;;;;;18.73;15.23;;;;;;;;;;5072486;28;20439;-66
2023/08/18 00:23:25;;;;;;;19.60;16.00;;;;;;;;;;5072710;28;20435;-66
2023/08/18 00:25:53;;;;;;;22.90;17.13;;;;;;;;;;5072702;28;20482;-66
2023/08/18 00:28:20;;;;;;;21.30;16.53;;;;;;;;;;5072760;28;20531;-66
2023/08/18 00:30:47;;;;;;;22.00;16.07;;;;;;;;;;5072701;28;20440;-66
2023/08/18 00:33:14;;;;;;;18.03;16.23;;;;;;;;;;5072316;28;20532;-66
2023/08/18 00:35:41;;;;;;;22.20;16.00;;;;;;;;;;5072339;28;20519;-66
2023/08/18 00:38:10;;;;;;;22.30;17.40;;;;;;;;;;5072285;28;20951;-66
2023/08/18 00:40:37;;;;;;;17.47;15.50;;;;;;;;;;5072585;28;20944;-66
2023/08/18 00:43:04;;;;;;;17.83;14.90;;;;;;;;;;5072275;28;20554;-66
2023/08/18 00:45:32;;;;;;;20.03;17.27;;;;;;;;;;5072175;28;20938;-66
2023/08/18 00:47:59;;;;;;;19.53;17.40;;;;;;;;;;5072336;28;20811;-66
2023/08/18 00:50:26;;;;;;;22.03;15.90;;;;;;;;;;5072605;28;20464;-66
2023/08/18 00:52:57;;;;;;;19.60;14.93;;;;;;;;;;5072098;28;20594;-66
2023/08/18 00:55:26;;;;;;;19.67;15.63;;;;;;;;;;5072515;28;20459;-66
2023/08/18 00:57:55;;;;;;;19.97;14.60;;;;;;;;;;5072372;28;20455;-66
2023/08/18 01:00:23;;;;;;;18.27;14.83;;;;;;;;;;5072311;28;20437;-66
2023/08/18 01:02:51;;;;;;;18.67;13.93;;;;;;;;;;5072628;28;20523;-66
2023/08/18 01:05:18;;;;;;;18.83;13.77;;;;;;;;;;5072311;28;20439;-66
2023/08/18 01:07:45;;;;;;;20.53;14.60;;;;;;;;;;5072417;28;20462;-66
2023/08/18 01:10:13;;;;;;;16.77;13.70;;;;;;;;;;5071910;28;20784;-66
2023/08/18 01:12:43;;;;;;;19.23;15.03;;;;;;;;;;5071913;28;20571;-66
2023/08/18 01:15:14;;;;;;;17.03;13.37;;;;;;;;;;5072636;28;20435;-66
2023/08/18 01:17:44;;;;;;;17.90;12.57;;;;;;;;;;5072251;28;20526;-66
2023/08/18 01:20:12;;;;;;;24.00;13.07;;;;;;;;;;5072380;28;20510;-66
2023/08/18 01:22:41;;;;;;;21.10;14.90;;;;;;;;;;5071756;28;20448;-66
2023/08/18 01:25:10;;;;;;;15.33;12.50;;;;;;;;;;5072328;28;20436;-66
2023/08/18 01:27:37;;;;;;;16.47;13.83;;;;;;;;;;5075188;28;20946;-66
2023/08/18 01:30:05;;;;;;;21.50;14.40;;;;;;;;;;5075498;28;20531;-66
2023/08/18 01:32:35;;;;;;;16.27;13.00;;;;;;;;;;5075289;28;20487;-66
2023/08/18 01:35:03;;;;;;;15.30;13.20;;;;;;;;;;5075495;28;20520;-66
2023/08/18 01:37:32;;;;;;;17.80;12.60;;;;;;;;;;5075376;28;20808;-66
2023/08/18 01:40:00;;;;;;;18.87;13.80;;;;;;;;;;5075201;28;20447;-66
2023/08/18 01:42:29;;;;;;;17.00;12.90;;;;;;;;;;5075288;28;20449;-66
2023/08/18 01:45:01;;;;;;;15.67;12.90;;;;;;;;;;5075452;28;20433;-66
2023/08/18 01:47:29;;;;;;;17.40;14.50;;;;;;;;;;5074925;28;20512;-66
2023/08/18 01:49:56;;;;;;;19.33;14.20;;;;;;;;;;5074902;28;20433;-66
2023/08/18 01:52:23;;;;;;;19.77;15.03;;;;;;;;;;5074913;28;20527;-66
2023/08/18 01:54:51;;;;;;;20.73;14.27;;;;;;;;;;5076104;28;20566;-66
2023/08/18 01:57:18;;;;;;;21.83;14.60;;;;;;;;;;5075397;28;20526;-66
2023/08/18 01:59:47;;;;;;;17.87;14.00;;;;;;;;;;5075065;28;20433;-66
2023/08/18 02:02:14;;;;;;;19.70;14.80;;;;;;;;;;5074950;28;20545;-66
2023/08/18 02:04:41;;;;;;;20.13;15.00;;;;;;;;;;5074879;28;20531;-66
2023/08/18 02:07:08;;;;;;;19.97;15.80;;;;;;;;;;5074450;28;20436;-66
2023/08/18 02:09:35;;;;;;;18.03;15.23;;;;;;;;;;5074506;28;20930;-66
2023/08/18 02:12:03;;;;;;;21.03;15.00;;;;;;;;;;5074508;28;20533;-66
2023/08/18 02:14:30;;;;;;;16.30;14.50;;;;;;;;;;5074855;28;20904;-68
2023/08/18 02:16:59;;;;;;;19.70;15.33;;;;;;;;;;5074390;28;20440;-66
2023/08/18 02:19:26;;;;;;;17.67;14.70;;;;;;;;;;5074699;28;20527;-66
2023/08/18 02:21:53;;;;;;;21.37;14.70;;;;;;;;;;5074235;28;20454;-66
2023/08/18 02:24:20;;;;;;;21.20;15.40;;;;;;;;;;5074752;28;20447;-65
2023/08/18 02:26:47;;;;;;;19.27;13.70;;;;;;;;;;5074728;28;20798;-66
2023/08/18 02:29:14;;;;;;;18.03;13.93;;;;;;;;;;5074824;28;20442;-65
2023/08/18 02:31:42;;;;;;;21.00;14.10;;;;;;;;;;5074613;28;20524;-66
2023/08/18 02:34:10;;;;;;;16.50;13.10;;;;;;;;;;5074091;28;20477;-65
2023/08/18 02:36:37;;;;;;;21.07;14.00;;;;;;;;;;5073730;28;20526;-66
2023/08/18 02:39:05;;;;;;;16.93;14.13;;;;;;;;;;5074367;28;20455;-66
2023/08/18 02:41:32;;;;;;;18.67;12.43;;;;;;;;;;5074337;28;20524;-66
2023/08/18 02:43:59;;;;;;;15.20;11.03;;;;;;;;;;5074322;28;20875;-66
2023/08/18 02:46:27;;;;;;;16.10;13.87;;;;;;;;;;5074199;28;20533;-66
2023/08/18 02:48:54;;;;;;;14.53;10.87;;;;;;;;;;5074001;28;20599;-66
2023/08/18 02:51:23;;;;;;;17.63;12.57;;;;;;;;;;5073843;28;20444;-66
2023/08/18 02:53:50;;;;;;;18.23;12.60;;;;;;;;;;5073924;28;20606;-66
2023/08/18 02:56:17;;;;;;;16.07;12.67;;;;;;;;;;5074249;28;20529;-66
2023/08/18 02:58:44;;;;;;;18.80;13.27;;;;;;;;;;5073920;28;20520;-66
2023/08/18 03:01:11;;;;;;;16.33;12.43;;;;;;;;;;5074250;28;20438;-66
2023/08/18 03:03:39;;;;;;;14.47;12.40;;;;;;;;;;5073474;28;20482;-66
2023/08/18 03:06:07;;;;;;;14.40;12.37;;;;;;;;;;5073907;28;20523;-66
2023/08/18 03:08:36;;;;;;;13.97;12.40;;;;;;;;;;5073696;28;20451;-66
2023/08/18 03:11:04;;;;;;;17.73;12.30;;;;;;;;;;5073515;28;20444;-66
2023/08/18 03:13:32;;;;;;;15.40;13.33;;;;;;;;;;5073385;28;20534;-66
2023/08/18 03:15:59;;;;;;;13.43;11.43;;;;;;;;;;5073608;28;20437;-66
2023/08/18 03:18:27;;;;;;;17.80;14.70;;;;;;;;;;5073292;28;20500;-66
2023/08/18 03:20:59;;;;;;;16.10;11.47;;;;;;;;;;5073309;28;20443;-66
2023/08/18 03:23:26;;;;;;;13.80;11.77;;;;;;;;;;5073198;28;20456;-66
2023/08/18 03:26:00;;;;;;;13.10;11.73;;;;;;;;;;5073126;28;20537;-66
2023/08/18 03:28:27;;;;;;;11.47;9.83;;;;;;;;;;5073456;28;20426;-65
2023/08/18 03:30:58;;;;;;;12.53;10.87;;;;;;;;;;5073447;28;20432;-66
2023/08/18 03:33:27;;;;;;;13.43;11.47;;;;;;;;;;5073384;28;20467;-65
2023/08/18 03:35:54;;;;;;;14.17;10.93;;;;;;;;;;5073434;28;20527;-70
2023/08/18 03:38:21;;;;;;;12.57;11.37;;;;;;;;;;5073012;28;20568;-65
2023/08/18 03:40:49;;;;;;;15.03;12.40;;;;;;;;;;5073012;28;20441;-65
2023/08/18 03:43:18;;;;;;;15.60;12.70;;;;;;;;;;5072948;28;20505;-66
2023/08/18 03:45:47;;;;;;;14.33;12.00;;;;;;;;;;5073302;28;20436;-67
2023/08/18 03:48:15;;;;;;;16.50;12.60;;;;;;;;;;5072668;28;20531;-66
2023/08/18 03:50:42;;;;;;;14.80;13.20;;;;;;;;;;5073477;28;20440;-65
2023/08/18 03:53:09;;;;;;;15.17;13.60;;;;;;;;;;5076024;28;20888;-65
2023/08/18 03:55:36;;;;;;;14.93;12.90;;;;;;;;;;5092326;28;20514;-66
2023/08/18 03:58:04;;;;;;;15.00;12.60;;;;;;;;;;5092109;28;20491;-65
2023/08/18 04:00:32;;;;;;;16.50;12.57;;;;;;;;;;5092921;28;20516;-66
2023/08/18 04:02:59;;;;;;;15.57;13.37;;;;;;;;;;5092200;28;20435;-66
2023/08/18 04:05:27;;;;;;;15.30;13.13;;;;;;;;;;5092799;28;20438;-66
2023/08/18 04:07:54;;;;;;;16.40;14.00;;;;;;;;;;5092913;28;20526;-65
2023/08/18 04:10:21;;;;;;;15.43;13.13;;;;;;;;;;5092757;28;20441;-65
2023/08/18 04:12:48;;;;;;;16.07;13.33;;;;;;;;;;5092342;28;20437;-66
2023/08/18 04:15:16;;;;;;;15.13;12.63;;;;;;;;;;5092816;28;20938;-65
2023/08/18 04:17:44;;;;;;;15.63;13.77;;;;;;;;;;5092401;28;20441;-66
2023/08/18 04:20:11;;;;;;;14.53;12.97;;;;;;;;;;5092347;28;20445;-66
2023/08/18 04:22:39;;;;;;;15.87;14.17;;;;;;;;;;5092209;28;21008;-66
2023/08/18 04:25:07;;;;;;;16.77;13.73;;;;;;;;;;5093045;28;20452;-66
2023/08/18 04:27:34;;;;;;;19.40;16.03;;;;;;;;;;5092865;28;20515;-66
2023/08/18 04:30:03;;;;;;;16.87;14.10;;;;;;;;;;5092057;28;20443;-66
2023/08/18 04:32:30;;;;;;;16.67;13.10;;;;;;;;;;5092699;28;20851;-62
2023/08/18 04:35:01;;;;;;;14.60;12.47;;;;;;;;;;5092579;28;20470;-65
2023/08/18 04:37:28;;;;;;;16.30;13.77;;;;;;;;;;5092952;28;20784;-63
2023/08/18 04:39:55;;;;;;;16.67;14.90;;;;;;;;;;5092843;28;20458;-63
2023/08/18 04:42:22;;;;;;;15.57;12.70;;;;;;;;;;5092795;28;20439;-63
2023/08/18 04:44:50;;;;;;;15.20;13.70;;;;;;;;;;5092166;28;20449;-64
2023/08/18 04:47:17;;;;;;;14.90;13.13;;;;;;;;;;5092408;28;20917;-63
2023/08/18 04:49:44;;;;;;;15.33;13.50;;;;;;;;;;5091922;28;20941;-63
2023/08/18 04:52:14;;;;;;;16.23;14.00;;;;;;;;;;5092349;28;20447;-63
2023/08/18 04:54:41;;;;;;;19.63;13.03;;;;;;;;;;5091874;28;20486;-63
2023/08/18 04:57:08;;;;;;;13.70;12.23;;;;;;;;;;5092297;28;20969;-63
2023/08/18 04:59:35;;;;;;;18.87;12.60;;;;;;;;;;5093036;28;20443;-64
2023/08/18 05:02:03;;;;;;;14.70;11.90;;;;;;;;;;5096120;28;21019;-63
2023/08/18 05:04:31;;;;;;;17.10;13.93;;;;;;;;;;5095993;28;20462;-64
2023/08/18 05:06:58;;;;;;;14.73;11.87;;;;;;;;;;5095784;28;20789;-64
2023/08/18 05:09:27;;;;;;;16.50;12.97;;;;;;;;;;5095675;28;20454;-63
2023/08/18 05:11:54;;;;;;;17.03;13.47;;;;;;;;;;5096290;28;20830;-63
2023/08/18 05:14:21;;;;;;;16.80;14.20;;;;;;;;;;5096189;28;20670;-63
2023/08/18 05:16:48;;;;;;;15.73;12.80;;;;;;;;;;5095817;28;20526;-63
2023/08/18 05:19:15;;;;;;;16.90;12.30;;;;;;;;;;5095672;28;20454;-63
2023/08/18 05:21:43;;;;;;;15.93;13.60;;;;;;;;;;5095683;28;21035;-63
2023/08/18 05:24:10;;;;;;;15.80;12.83;;;;;;;;;;5096095;28;20456;-63
2023/08/18 05:26:38;;;;;;;15.20;12.47;;;;;;;;;;5095667;28;20466;-63
2023/08/18 05:29:06;;;;;;;15.60;13.90;;;;;;;;;;5095029;28;20455;-63
2023/08/18 05:31:34;;;;;;;16.43;11.97;;;;;;;;;;5095509;28;20427;-64
2023/08/18 05:34:02;;;;;;;17.50;12.93;;;;;;;;;;5095234;28;20473;-63
2023/08/18 05:36:29;;;;;;;14.70;13.10;;;;;;;;;;5095980;28;20465;-63
2023/08/18 05:38:56;;;;;;;16.83;12.67;;;;;;;;;;5095810;28;20470;-63
2023/08/18 05:41:24;;;;;;;19.57;14.80;;;;;;;;;;5095216;28;21007;-63
2023/08/18 05:43:52;;;;;;;18.77;14.20;;;;;;;;;;5095203;28;20463;-63
2023/08/18 05:46:20;;;;;;;20.53;13.87;;;;;;;;;;5095331;28;20533;-64
2023/08/18 05:48:47;;;;;;;19.57;13.03;;;;;;;;;;5095415;28;20808;-63
2023/08/18 05:51:14;;;;;;;20.17;13.50;;;;;;;;;;5095411;28;20470;-64
2023/08/18 05:53:41;;;;;;;15.53;13.70;;;;;;;;;;5094908;28;21028;-63
2023/08/18 05:56:08;;;;;;;18.93;13.30;;;;;;;;;;5095360;28;20527;-63
2023/08/18 05:58:36;;;;;;;18.37;13.53;;;;;;;;;;5094865;28;20436;-63
2023/08/18 06:01:04;;;;;;;16.80;13.20;;;;;;;;;;5095165;28;20776;-63
2023/08/18 06:03:31;;;;;;;16.90;12.50;;;;;;;;;;5094975;28;20548;-63
2023/08/18 06:06:00;;;;;;;14.33;12.80;;;;;;;;;;5095058;28;20435;-63
2023/08/18 06:08:27;;;;;;;19.60;12.50;;;;;;;;;;5095156;28;20438;-63
2023/08/18 06:10:56;;;;;;;20.20;16.47;;;;;;;;;;5094283;28;20477;-63
2023/08/18 06:13:24;;;;;;;23.83;20.13;;;;;;;;;;5094881;28;20561;-64
2023/08/18 06:15:54;;;;;;;22.77;16.43;;;;;;;;;;5094492;28;20482;-63
2023/08/18 06:18:22;;;;;;;15.00;13.37;;;;;;;;;;5095002;28;20451;-63
2023/08/18 06:20:49;;;;;;;18.93;13.20;;;;;;;;;;5094426;28;20878;-63
2023/08/18 06:23:16;;;;;;;20.50;14.70;;;;;;;;;;5094729;28;20449;-63
2023/08/18 06:25:44;;;;;;;23.87;16.60;;;;;;;;;;5094317;28;20455;-63
2023/08/18 06:28:11;;;;;;;17.80;14.07;;;;;;;;;;5094206;28;20529;-63
2023/08/18 06:30:38;;;;;;;17.77;12.60;;;;;;;;;;5094565;28;20803;-63
2023/08/18 06:33:06;;;;;;;13.97;12.30;;;;;;;;;;5094567;28;20436;-63
2023/08/18 06:35:34;;;;;;;13.70;11.70;;;;;;;;;;5094318;28;20565;-63
2023/08/18 06:38:01;;;;;;;13.90;12.33;;;;;;;;;;5094359;28;20806;-63
2023/08/18 06:40:28;;;;;;;16.70;13.50;;;;;;;;;;5093938;28;20809;-63
2023/08/18 06:42:56;;;;;;;16.93;11.17;;;;;;;;;;5094114;28;20526;-63
2023/08/18 06:45:23;;;;;;;18.27;13.23;;;;;;;;;;5094220;28;20522;-63
2023/08/18 06:47:50;;;;;;;20.70;16.20;;;;;;;;;;5094320;28;20439;-63
2023/08/18 06:50:17;;;;;;;15.53;12.20;;;;;;;;;;5094109;28;20468;-63
2023/08/18 06:52:47;;;;;;;13.33;11.90;;;;;;;;;;5094262;28;20439;-63
2023/08/18 06:55:14;;;;;;;15.53;11.77;;;;;;;;;;5094292;28;20493;-63
2023/08/18 06:57:41;;;;;;;17.40;12.63;;;;;;;;;;5094057;28;20439;-63
2023/08/18 07:00:10;;;;;;;18.43;12.90;;;;;;;;;;5094119;28;20828;-63
2023/08/18 07:02:38;;;;;;;16.40;11.70;;;;;;;;;;5094132;28;20450;-63
2023/08/18 07:05:05;;;;;;;16.60;12.00;;;;;;;;;;5093499;28;20462;-63
2023/08/18 07:07:33;;;;;;;14.97;10.57;;;;;;;;;;5094125;28;20431;-63
2023/08/18 07:10:02;;;;;;;14.93;11.47;;;;;;;;;;5093912;28;20438;-63
2023/08/18 07:12:29;;;;;;;14.37;11.07;;;;;;;;;;5093593;28;20475;-63
2023/08/18 07:14:56;;;;;;;14.20;9.87;;;;;;;;;;5093094;28;20487;-63
2023/08/18 07:17:23;;;;;;;15.87;11.67;;;;;;;;;;5093629;28;20791;-63
2023/08/18 07:19:50;;;;;;;16.90;11.50;;;;;;;;;;5093395;28;20438;-63
2023/08/18 07:22:18;;;;;;;15.00;10.20;;;;;;;;;;5093246;28;20447;-63
2023/08/18 07:24:46;;;;;;;20.87;10.20;;;;;;;;;;5092643;28;20807;-63
2023/08/18 07:27:14;;;;;;;11.97;9.97;;;;;;;;;;5093238;28;20443;-63
2023/08/18 07:29:41;;;;;;;14.47;10.43;;;;;;;;;;5093513;28;20629;-63
2023/08/18 07:32:09;;;;;;;13.00;9.00;;;;;;;;;;5093485;28;20527;-64
2023/08/18 07:34:36;;;;;;;13.20;9.57;;;;;;;;;;5094287;28;20490;-63
2023/08/18 07:37:05;;;;;;;11.50;9.00;;;;;;;;;;5093393;28;20547;-63
2023/08/18 07:39:32;;;;;;;12.17;9.57;;;;;;;;;;5093756;28;20496;-63
2023/08/18 07:42:00;;;;;;;12.23;9.50;;;;;;;;;;5093445;28;20535;-63
2023/08/18 07:44:28;;;;;;;11.47;9.00;;;;;;;;;;5093161;28;20474;-63
2023/08/18 07:46:55;;;;;;;10.50;9.40;;;;;;;;;;5093307;28;20530;-63
2023/08/18 07:49:22;;;;;;;11.40;9.70;;;;;;;;;;5093294;28;20522;-63
2023/08/18 07:51:50;;;;;;;13.93;9.77;;;;;;;;;;5093046;28;20453;-63
2023/08/18 07:54:17;;;;;;;14.13;9.23;;;;;;;;;;5093528;28;20493;-63
2023/08/18 07:56:44;;;;;;;11.67;9.80;;;;;;;;;;5093421;28;20449;-63
2023/08/18 07:59:11;;;;;;;13.27;9.27;;;;;;;;;;5093472;28;20526;-63
2023/08/18 08:01:40;;;;;;;13.70;8.90;;;;;;;;;;5093106;28;20526;-63
2023/08/18 08:04:07;;;;;;;9.90;8.37;;;;;;;;;;5093166;28;20439;-63
2023/08/18 08:06:34;;;;;;;10.83;8.50;;;;;;;;;;5093385;28;20802;-62
2023/08/18 08:09:03;;;;;;;9.20;7.23;;;;;;;;;;5092765;28;20535;-63
2023/08/18 08:11:30;;;;;;;9.70;7.80;;;;;;;;;;5092951;28;20530;-63
2023/08/18 08:13:58;;;;;;;20.17;8.10;;;;;;;;;;5092912;28;20789;-63
2023/08/18 08:16:25;;;;;;;9.27;8.37;;;;;;;;;;5093123;28;20483;-63
2023/08/18 08:18:53;;;;;;;10.97;8.60;;;;;;;;;;5092803;28;20947;-63
2023/08/18 08:21:21;;;;;;;10.43;8.10;;;;;;;;;;5092949;28;20530;-63
2023/08/18 08:23:48;;;;;;;14.03;11.73;;;;;;;;;;5093103;28;20444;-63
2023/08/18 08:26:16;;;;;;;13.50;10.40;;;;;;;;;;5092704;28;20526;-63
2023/08/18 08:28:44;;;;;;;10.30;8.80;;;;;;;;;;5093171;28;20528;-63
2023/08/18 08:31:11;;;;;;;10.80;8.80;;;;;;;;;;5092153;28;20500;-63
2023/08/18 08:33:38;;;;;;;10.87;8.97;;;;;;;;;;5092782;28;20474;-63
2023/08/18 08:36:07;;;;;;;10.30;9.07;;;;;;;;;;5095480;28;20629;-63
2023/08/18 08:38:34;;;;;;;10.10;8.23;;;;;;;;;;5097077;28;20435;-63
2023/08/18 08:41:02;;;;;;;13.40;9.47;;;;;;;;;;5096437;28;20435;-63
2023/08/18 08:43:29;;;;;;;10.37;9.10;;;;;;;;;;5096889;28;20522;-63
2023/08/18 08:46:00;;;;;;;13.17;11.43;;;;;;;;;;5097098;28;20534;-63
2023/08/18 08:48:38;;;;;;;17.40;11.43;;;;;;;;;;5097213;28;20428;-63
2023/08/18 08:51:10;;;;;;;13.93;11.20;;;;;;;;;;5096748;28;20518;-63
2023/08/18 08:53:39;;;;;;;13.27;9.70;;;;;;;;;;5096569;28;21066;-63
2023/08/18 08:56:08;;;;;;;12.90;10.40;;;;;;;;;;5096224;28;20475;-63
2023/08/18 08:58:36;;;;;;;14.00;11.13;;;;;;;;;;5096246;28;20437;-63
2023/08/18 09:01:04;;;;;;;16.03;11.60;;;;;;;;;;5096373;28;20439;-64
2023/08/18 09:03:31;;;;;;;13.47;11.73;;;;;;;;;;5096225;28;20443;-63
2023/08/18 09:05:59;;;;;;;13.93;10.53;;;;;;;;;;5096262;28;20928;-63
2023/08/18 09:08:27;;;;;;;12.90;11.43;;;;;;;;;;5096219;28;20526;-63
2023/08/18 09:10:55;;;;;;;13.23;11.87;;;;;;;;;;5096497;28;20531;-63
2023/08/18 09:13:23;;;;;;;15.47;11.27;;;;;;;;;;5096141;28;20872;-63
2023/08/18 09:15:50;;;;;;;13.20;10.77;;;;;;;;;;5096510;28;20846;-63
2023/08/18 09:18:18;;;;;;;14.20;11.00;;;;;;;;;;5096302;28;20522;-63
2023/08/18 09:20:45;;;;;;;13.10;11.47;;;;;;;;;;5095805;28;20435;-63
2023/08/18 09:23:13;;;;;;;16.50;11.37;;;;;;;;;;5096362;28;20431;-63
2023/08/18 09:25:41;;;;;;;15.03;11.87;;;;;;;;;;5096284;28;20811;-63
2023/08/18 09:28:08;;;;;;;15.27;13.67;;;;;;;;;;5096058;28;20520;-63
2023/08/18 09:30:35;;;;;;;25.77;19.07;;;;;;;;;;5096136;28;20743;-63
2023/08/18 09:33:03;;;;;;;19.37;13.17;;;;;;;;;;5096014;28;20447;-63
2023/08/18 09:35:33;;;;;;;13.03;11.50;;;;;;;;;;5096388;28;20478;-63
2023/08/18 09:38:01;;;;;;;17.23;13.97;;;;;;;;;;5096067;28;20428;-63
2023/08/18 09:40:28;;;;;;;17.30;13.00;;;;;;;;;;5095703;28;20536;-63
2023/08/18 09:42:57;;;;;;;12.97;11.57;;;;;;;;;;5095838;28;20524;-63
2023/08/18 09:45:26;;;;;;;16.60;13.40;;;;;;;;;;5095493;28;20451;-63
2023/08/18 09:47:54;;;;;;;22.60;14.97;;;;;;;;;;5095133;28;20455;-63
2023/08/18 09:50:23;;;;;;;17.37;14.77;;;;;;;;;;5096027;28;20431;-63
2023/08/18 09:52:52;;;;;;;15.57;13.90;;;;;;;;;;5095516;28;20841;-63
2023/08/18 09:55:21;;;;;;;14.30;12.90;;;;;;;;;;5095400;28;20984;-63
2023/08/18 09:57:51;;;;;;;15.13;12.60;;;;;;;;;;5095181;28;20445;-63
2023/08/18 10:00:21;;;;;;;15.03;13.40;;;;;;;;;;5095706;28;20424;-63
2023/08/18 10:02:50;;;;;;;14.77;12.97;;;;;;;;;;5095391;28;20513;-63
2023/08/18 10:05:17;;;;;;;16.20;14.17;;;;;;;;;;5095752;28;20474;-63
2023/08/18 10:07:44;;;;;;;16.83;14.57;;;;;;;;;;5094917;28;20536;-63
2023/08/18 10:10:12;;;;;;;15.07;13.20;;;;;;;;;;5095944;28;20427;-63
2023/08/18 10:12:39;;;;;;;16.67;13.60;;;;;;;;;;5094959;28;20770;-63
2023/08/18 10:15:07;;;;;;;16.97;14.00;;;;;;;;;;5095127;28;20438;-63
2023/08/18 10:17:36;;;;;;;18.70;14.30;;;;;;;;;;5095076;28;20839;-63
2023/08/18 10:20:03;;;;;;;15.93;14.13;;;;;;;;;;5095025;28;20438;-63
2023/08/18 10:22:32;;;;;;;16.97;14.20;;;;;;;;;;5094948;28;20437;-63
2023/08/18 10:24:59;;;;;;;20.40;15.37;;;;;;;;;;5094981;28;20442;-63
2023/08/18 10:27:44;;;;;;;21.73;15.47;;;;;;;;;;5094587;28;20876;-63
2023/08/18 10:30:28;;;;;;;15.63;13.17;;;;;;;;;;5095190;28;20429;-63
2023/08/18 10:33:03;;;;;;;20.10;14.07;;;;;;;;;;5094796;28;20445;-63
2023/08/18 10:35:30;;;;;;;16.20;14.10;;;;;;;;;;5094742;28;20471;-63
2023/08/18 10:37:59;;;;;;;13.57;11.80;;;;;;;;;;5094946;28;20447;-63
2023/08/18 10:40:27;;;;;;;13.90;12.30;;;;;;;;;;5094976;28;20444;-63
2023/08/18 10:42:54;;;;;;;24.03;21.47;;;;;;;;;;5094855;28;20526;-63
2023/08/18 10:45:26;;;;;;;16.93;13.33;;;;;;;;;;5095069;28;20438;-63
2023/08/18 10:47:53;;;;;;;15.47;13.83;;;;;;;;;;5094914;28;20497;-64
2023/08/18 10:50:22;;;;;;;17.77;12.03;;;;;;;;;;5094236;28;20958;-63
2023/08/18 10:52:52;;;;;;;15.30;13.23;;;;;;;;;;5093935;28;20529;-63
2023/08/18 10:55:19;;;;;;;13.93;12.10;;;;;;;;;;5094532;28;20435;-63
2023/08/18 10:57:47;;;;;;;15.33;12.03;;;;;;;;;;5094371;28;20524;-63
2023/08/18 11:00:17;;;;;;;17.10;13.57;;;;;;;;;;5094216;28;20435;-63
2023/08/18 11:02:45;;;;;;;13.60;12.30;;;;;;;;;;5094748;28;20434;-63
2023/08/18 11:05:13;;;;;;;13.90;12.60;;;;;;;;;;5094526;28;20492;-63
2023/08/18 11:07:42;;;;;;;14.60;12.70;;;;;;;;;;5094245;28;20436;-63
2023/08/18 11:10:17;;;;;;;12.60;11.27;;;;;;;;;;5094432;28;20443;-63
2023/08/18 11:12:44;;;;;;;15.60;13.93;;;;;;;;;;5094447;28;20426;-63
2023/08/18 11:15:12;;;;;;;14.43;12.93;;;;;;;;;;5094252;28;20471;-63
2023/08/18 11:17:39;;;;;;;15.27;11.93;;;;;;;;;;5094027;28;20446;-63
2023/08/18 11:20:08;;;;;;;14.37;12.07;;;;;;;;;;5093826;28;20449;-63
2023/08/18 11:22:37;;;;;;;15.13;12.80;;;;;;;;;;5093901;28;20809;-63
2023/08/18 11:25:06;;;;;;;13.00;11.73;;;;;;;;;;5093834;28;20431;-63
2023/08/18 11:27:34;;;;;;;13.10;11.80;;;;;;;;;;5094016;28;20537;-63
2023/08/18 11:30:04;;;;;;;14.33;12.37;;;;;;;;;;5093634;28;20438;-63
2023/08/18 11:32:31;;;;;;;17.37;13.67;;;;;;;;;;5094436;28;20488;-63
2023/08/18 11:35:00;;;;;;;13.97;12.30;;;;;;;;;;5093701;28;20529;-62
2023/08/18 11:37:28;;;;;;;14.23;12.80;;;;;;;;;;5093859;28;20474;-66
2023/08/18 11:39:55;;;;;;;13.83;12.50;;;;;;;;;;5093813;28;20911;-65
2023/08/18 11:42:23;;;;;;;13.90;12.47;;;;;;;;;;5093495;28;20554;-65
2023/08/18 11:44:51;;;;;;;15.93;14.43;;;;;;;;;;5093701;28;20605;-66
2023/08/18 11:47:20;;;;;;;12.77;11.57;;;;;;;;;;5094307;28;20774;-65
2023/08/18 11:49:47;;;;;;;13.93;11.97;;;;;;;;;;5077338;28;20455;-66
2023/08/18 11:52:16;;;;;;;19.10;13.77;;;;;;;;;;5072772;28;20775;-67
2023/08/18 11:54:43;;;;;;;13.33;12.20;;;;;;;;;;5072658;28;20535;-67
2023/08/18 11:57:14;;;;;;;14.60;13.03;;;;;;;;;;5072565;28;20522;-67
2023/08/18 11:59:46;;;;;;;12.60;11.37;;;;;;;;;;5072511;28;20431;-66
2023/08/18 12:02:13;;;;;;;14.37;13.00;;;;;;;;;;5073020;28;20450;-67
2023/08/18 12:04:43;;;;;;;14.00;12.13;;;;;;;;;;5072955;28;20480;-67
2023/08/18 12:07:10;;;;;;;13.70;12.43;;;;;;;;;;5072523;28;20438;-66
2023/08/18 12:09:38;;;;;;;14.13;12.30;;;;;;;;;;5072040;28;20504;-66
2023/08/18 12:12:13;;;;;;;13.23;11.93;;;;;;;;;;5073412;28;20446;-66
2023/08/18 12:14:41;;;;;;;14.00;10.63;;;;;;;;;;5073267;28;20421;-65
2023/08/18 12:17:10;;;;;;;12.93;11.20;;;;;;;;;;5072642;28;20483;-67
2023/08/18 12:19:37;;;;;;;11.07;10.10;;;;;;;;;;5078000;28;20443;-67
2023/08/18 12:22:04;;;;;;;13.20;11.87;;;;;;;;;;5092918;28;20991;-67
2023/08/18 12:24:31;;;;;;;12.37;11.07;;;;;;;;;;5093155;28;20447;-67
2023/08/18 12:26:59;;;;;;;12.90;11.70;;;;;;;;;;5074048;28;20450;-67
2023/08/18 12:29:26;;;;;;;13.20;11.93;;;;;;;;;;5072558;28;20441;-67
2023/08/18 12:31:53;;;;;;;11.10;10.10;;;;;;;;;;5072675;28;20487;-67
2023/08/18 12:34:22;;;;;;;12.97;11.73;;;;;;;;;;5072815;28;20515;-67
2023/08/18 12:36:49;;;;;;;11.97;10.87;;;;;;;;;;5072849;28;20812;-66
2023/08/18 12:39:17;;;;;;;11.80;10.60;;;;;;;;;;5072604;28;20449;-66
2023/08/18 12:41:44;;;;;;;12.30;11.07;;;;;;;;;;5072395;28;20446;-66
2023/08/18 12:44:12;;;;;;;11.47;10.37;;;;;;;;;;5072368;28;20531;-66
2023/08/18 12:46:40;;;;;;;12.60;11.50;;;;;;;;;;5072401;28;20455;-66
2023/08/18 12:49:07;;;;;;;11.00;10.13;;;;;;;;;;5072431;28;20526;-66
2023/08/18 12:51:35;;;;;;;10.50;9.47;;;;;;;;;;5072303;28;20501;-66
2023/08/18 12:54:03;;;;;;;10.60;9.80;;;;;;;;;;5072246;28;20555;-66
2023/08/18 12:56:30;;;;;;;11.40;10.30;;;;;;;;;;5072392;28;20484;-66
2023/08/18 12:58:58;;;;;;;10.93;9.80;;;;;;;;;;5072589;28;20820;-67
2023/08/18 13:01:25;;;;;;;11.50;10.50;;;;;;;;;;5072544;28;20522;-66
2023/08/18 13:03:52;;;;;;;10.30;9.37;;;;;;;;;;5072195;28;20501;-67
2023/08/18 13:06:19;;;;;;;10.70;8.80;;;;;;;;;;5072164;28;20527;-66
2023/08/18 13:08:48;;;;;;;11.20;10.10;;;;;;;;;;5072521;28;20948;-66
2023/08/18 13:11:15;;;;;;;11.40;10.30;;;;;;;;;;5072430;28;20539;-66
2023/08/18 13:13:43;;;;;;;10.73;9.73;;;;;;;;;;5072221;28;20926;-67
2023/08/18 13:16:10;;;;;;;10.80;9.90;;;;;;;;;;5072084;28;20974;-66
2023/08/18 13:18:37;;;;;;;12.40;10.10;;;;;;;;;;5072416;28;20468;-66
2023/08/18 13:21:05;;;;;;;11.17;9.87;;;;;;;;;;5090665;28;20433;-66
2023/08/18 13:23:32;;;;;;;9.70;9.00;;;;;;;;;;5096837;28;20444;-66
2023/08/18 13:26:01;;;;;;;9.27;8.37;;;;;;;;;;5095554;28;21024;-67
2023/08/18 13:28:28;;;;;;;10.20;9.10;;;;;;;;;;5095960;28;20528;-66
2023/08/18 13:30:55;;;;;;;13.10;8.97;;;;;;;;;;5095653;28;20534;-66
2023/08/18 13:33:22;;;;;;;9.80;9.00;;;;;;;;;;5096527;28;20947;-66
2023/08/18 13:35:50;;;;;;;10.27;9.40;;;;;;;;;;5095679;28;20453;-67
2023/08/18 13:38:17;;;;;;;10.10;9.20;;;;;;;;;;5096200;28;20837;-67
2023/08/18 13:40:45;;;;;;;10.20;9.30;;;;;;;;;;5095625;28;20525;-66
2023/08/18 13:43:14;;;;;;;9.40;8.50;;;;;;;;;;5095829;28;20872;-66
2023/08/18 13:45:41;;;;;;;10.50;9.70;;;;;;;;;;5095507;28;20792;-66
2023/08/18 13:48:08;;;;;;;9.13;8.33;;;;;;;;;;5095459;28;20527;-65
2023/08/18 13:50:36;;;;;;;9.03;8.23;;;;;;;;;;5095551;28;20818;-65
2023/08/18 13:53:03;;;;;;;9.87;8.97;;;;;;;;;;5095449;28;20435;-66
2023/08/18 13:55:31;;;;;;;9.07;7.90;;;;;;;;;;5095881;28;20432;-66
2023/08/18 13:57:58;;;;;;;9.63;8.57;;;;;;;;;;5095298;28;21022;-66
2023/08/18 14:00:27;;;;;;;9.03;8.23;;;;;;;;;;5095516;28;20501;-66
2023/08/18 14:02:54;;;;;;;8.70;8.10;;;;;;;;;;5095464;28;20410;-66
2023/08/18 14:05:21;;;;;;;8.87;8.17;;;;;;;;;;5095349;28;20501;-64
2023/08/18 14:07:48;;;;;;;9.20;8.33;;;;;;;;;;5094733;28;20531;-64
2023/08/18 14:10:15;;;;;;;9.67;8.07;;;;;;;;;;5095267;28;20415;-66
2023/08/18 14:12:47;;;;;;;7.80;7.10;;;;;;;;;;5095633;28;20527;-66
2023/08/18 14:15:14;;;;;;;8.50;7.83;;;;;;;;;;5095987;28;20401;-66
2023/08/18 14:17:44;;;;;;;8.30;7.63;;;;;;;;;;5095464;28;20454;-66
2023/08/18 14:20:13;;;;;;;8.60;7.90;;;;;;;;;;5095025;28;20458;-64
2023/08/18 14:22:40;;;;;;;8.73;7.87;;;;;;;;;;5095725;28;20514;-65
2023/08/18 14:25:08;;;;;;;8.33;7.70;;;;;;;;;;5095365;28;20444;-65